sensor_id;sensor_type;location;lat;lon;timestamp;temperature;humidity
463;DHT22;218;51.902;9.542;2022-07-04T00:02:13;18.30;1.00
463;DHT22;218;51.902;9.542;2022-07-04T00:04:40;18.30;1.00
463;DHT22;218;51.902;9.542;2022-07-04T00:07:07;18.40;1.00
463;DHT22;218;51.902;9.542;2022-07-04T00:09:34;18.30;1.00
463;DHT22;218;51.902;9.542;2022-07-04T00:12:01;18.20;1.00
463;DHT22;218;51.902;9.542;2022-07-04T00:14:30;18.10;1.00
463;DHT22;218;51.902;9.542;2022-07-04T00:17:01;18.00;1.00
463;DHT22;218;51.902;9.542;2022-07-04T00:19:28;18.00;1.00
463;DHT22;218;51.902;9.542;2022-07-04T00:21:55;17.80;1.00
463;DHT22;218;51.902;9.542;2022-07-04T00:24:22;17.70;1.00
463;DHT22;218;51.902;9.542;2022-07-04T00:26:49;17.60;1.00
463;DHT22;218;51.902;9.542;2022-07-04T00:29:16;17.50;1.00
463;DHT22;218;51.902;9.542;2022-07-04T00:31:45;17.50;1.00
463;DHT22;218;51.902;9.542;2022-07-04T00:34:12;17.40;1.00
463;DHT22;218;51.902;9.542;2022-07-04T00:36:39;17.30;1.00
463;DHT22;218;51.902;9.542;2022-07-04T00:39:07;17.20;1.00
463;DHT22;218;51.902;9.542;2022-07-04T00:41:34;17.10;1.00
463;DHT22;218;51.902;9.542;2022-07-04T00:46:29;17.00;1.00
463;DHT22;218;51.902;9.542;2022-07-04T00:48:57;16.90;1.00
463;DHT22;218;51.902;9.542;2022-07-04T00:51:25;16.90;1.00
463;DHT22;218;51.902;9.542;2022-07-04T00:53:53;16.80;1.00
463;DHT22;218;51.902;9.542;2022-07-04T00:56:21;16.70;1.00
463;DHT22;218;51.902;9.542;2022-07-04T00:58:48;16.60;1.00
463;DHT22;218;51.902;9.542;2022-07-04T01:01:16;16.50;1.00
463;DHT22;218;51.902;9.542;2022-07-04T01:03:43;16.50;1.00
463;DHT22;218;51.902;9.542;2022-07-04T01:06:11;16.40;1.00
463;DHT22;218;51.902;9.542;2022-07-04T01:11:08;16.40;1.00
463;DHT22;218;51.902;9.542;2022-07-04T01:13:36;16.30;1.00
463;DHT22;218;51.902;9.542;2022-07-04T01:16:04;16.30;1.00
463;DHT22;218;51.902;9.542;2022-07-04T01:18:31;16.20;1.00
463;DHT22;218;51.902;9.542;2022-07-04T01:21:00;16.20;1.00
463;DHT22;218;51.902;9.542;2022-07-04T01:23:27;16.10;1.00
463;DHT22;218;51.902;9.542;2022-07-04T01:25:56;16.00;1.00
463;DHT22;218;51.902;9.542;2022-07-04T01:28:23;16.00;1.00
463;DHT22;218;51.902;9.542;2022-07-04T01:30:51;16.00;1.00
463;DHT22;218;51.902;9.542;2022-07-04T01:38:40;16.20;1.00
463;DHT22;218;51.902;9.542;2022-07-04T01:49:20;16.40;1.00
463;DHT22;218;51.902;9.542;2022-07-04T01:51:49;16.50;1.00
463;DHT22;218;51.902;9.542;2022-07-04T01:56:45;16.50;1.00
463;DHT22;218;51.902;9.542;2022-07-04T02:04:06;16.50;1.00
463;DHT22;218;51.902;9.542;2022-07-04T02:41:22;16.10;1.00
463;DHT22;218;51.902;9.542;2022-07-04T03:05:57;15.70;1.00
463;DHT22;218;51.902;9.542;2022-07-04T03:08:24;15.60;1.00
463;DHT22;218;51.902;9.542;2022-07-04T04:25:05;15.40;1.00
463;DHT22;218;51.902;9.542;2022-07-04T04:47:14;15.70;1.00
463;DHT22;218;51.902;9.542;2022-07-04T05:26:54;16.90;1.00
463;DHT22;218;51.902;9.542;2022-07-04T05:29:21;17.00;1.00
463;DHT22;218;51.902;9.542;2022-07-04T05:31:48;17.10;1.00
463;DHT22;218;51.902;9.542;2022-07-04T05:34:15;17.10;1.00
463;DHT22;218;51.902;9.542;2022-07-04T05:39:11;17.40;1.00
463;DHT22;218;51.902;9.542;2022-07-04T05:41:38;17.50;1.00
463;DHT22;218;51.902;9.542;2022-07-04T05:44:07;17.70;1.00
463;DHT22;218;51.902;9.542;2022-07-04T05:46:34;17.80;1.00
463;DHT22;218;51.902;9.542;2022-07-04T05:49:01;17.90;1.00
463;DHT22;218;51.902;9.542;2022-07-04T05:51:28;18.10;1.00
463;DHT22;218;51.902;9.542;2022-07-04T05:53:57;18.20;1.00
463;DHT22;218;51.902;9.542;2022-07-04T05:56:40;18.40;1.00
463;DHT22;218;51.902;9.542;2022-07-04T05:59:09;18.50;1.00
463;DHT22;218;51.902;9.542;2022-07-04T06:01:37;18.60;1.00
463;DHT22;218;51.902;9.542;2022-07-04T06:04:05;18.80;1.00
463;DHT22;218;51.902;9.542;2022-07-04T06:06:33;18.80;1.00
463;DHT22;218;51.902;9.542;2022-07-04T06:09:00;19.00;1.00
463;DHT22;218;51.902;9.542;2022-07-04T06:11:28;19.20;1.00
463;DHT22;218;51.902;9.542;2022-07-04T06:16:24;19.30;1.00
463;DHT22;218;51.902;9.542;2022-07-04T06:18:51;19.50;1.00
463;DHT22;218;51.902;9.542;2022-07-04T06:21:18;19.60;1.00
463;DHT22;218;51.902;9.542;2022-07-04T06:23:45;19.70;1.00
463;DHT22;218;51.902;9.542;2022-07-04T06:26:13;19.80;1.00
463;DHT22;218;51.902;9.542;2022-07-04T06:28:40;20.00;1.00
463;DHT22;218;51.902;9.542;2022-07-04T06:31:07;20.10;1.00
463;DHT22;218;51.902;9.542;2022-07-04T06:33:35;20.30;1.00
463;DHT22;218;51.902;9.542;2022-07-04T06:36:22;20.40;1.00
463;DHT22;218;51.902;9.542;2022-07-04T06:38:49;20.50;1.00
463;DHT22;218;51.902;9.542;2022-07-04T06:41:16;20.60;1.00
463;DHT22;218;51.902;9.542;2022-07-04T06:43:43;20.70;1.00
463;DHT22;218;51.902;9.542;2022-07-04T06:46:10;20.90;1.00
463;DHT22;218;51.902;9.542;2022-07-04T06:48:39;21.00;1.00
463;DHT22;218;51.902;9.542;2022-07-04T06:51:06;21.10;1.00
463;DHT22;218;51.902;9.542;2022-07-04T06:53:33;21.20;1.00
463;DHT22;218;51.902;9.542;2022-07-04T06:56:00;21.30;1.00
463;DHT22;218;51.902;9.542;2022-07-04T06:58:27;21.40;1.00
463;DHT22;218;51.902;9.542;2022-07-04T07:00:54;21.50;1.00
463;DHT22;218;51.902;9.542;2022-07-04T07:03:21;21.60;1.00
463;DHT22;218;51.902;9.542;2022-07-04T07:05:51;21.70;1.00
463;DHT22;218;51.902;9.542;2022-07-04T07:08:18;21.70;1.00
463;DHT22;218;51.902;9.542;2022-07-04T07:10:46;21.80;1.00
463;DHT22;218;51.902;9.542;2022-07-04T07:13:13;21.90;1.00
463;DHT22;218;51.902;9.542;2022-07-04T07:15:40;22.00;1.00
463;DHT22;218;51.902;9.542;2022-07-04T07:18:07;22.10;1.00
463;DHT22;218;51.902;9.542;2022-07-04T07:20:34;22.20;1.00
463;DHT22;218;51.902;9.542;2022-07-04T07:23:03;22.40;1.00
463;DHT22;218;51.902;9.542;2022-07-04T07:25:30;22.50;1.00
463;DHT22;218;51.902;9.542;2022-07-04T07:27:58;22.60;1.00
463;DHT22;218;51.902;9.542;2022-07-04T07:30:25;22.70;1.00
463;DHT22;218;51.902;9.542;2022-07-04T07:32:52;22.80;1.00
463;DHT22;218;51.902;9.542;2022-07-04T07:35:19;22.80;1.00
463;DHT22;218;51.902;9.542;2022-07-04T07:41:02;23.00;1.00
463;DHT22;218;51.902;9.542;2022-07-04T07:43:29;23.00;1.00
463;DHT22;218;51.902;9.542;2022-07-04T07:45:56;23.10;1.00
463;DHT22;218;51.902;9.542;2022-07-04T07:48:23;23.20;1.00
463;DHT22;218;51.902;9.542;2022-07-04T07:50:50;23.50;1.00
463;DHT22;218;51.902;9.542;2022-07-04T07:53:17;23.70;1.00
463;DHT22;218;51.902;9.542;2022-07-04T07:55:44;24.10;1.00
463;DHT22;218;51.902;9.542;2022-07-04T07:58:13;24.40;1.00
463;DHT22;218;51.902;9.542;2022-07-04T08:00:40;24.60;1.00
463;DHT22;218;51.902;9.542;2022-07-04T08:03:07;24.90;1.00
463;DHT22;218;51.902;9.542;2022-07-04T08:06:05;25.30;1.00
463;DHT22;218;51.902;9.542;2022-07-04T08:08:32;25.50;1.00
463;DHT22;218;51.902;9.542;2022-07-04T08:10:59;25.70;1.00
463;DHT22;218;51.902;9.542;2022-07-04T08:13:28;26.00;1.00
463;DHT22;218;51.902;9.542;2022-07-04T08:15:57;26.30;1.00
463;DHT22;218;51.902;9.542;2022-07-04T08:18:24;26.50;1.00
463;DHT22;218;51.902;9.542;2022-07-04T08:20:51;26.90;1.00
463;DHT22;218;51.902;9.542;2022-07-04T08:23:18;27.20;1.00
463;DHT22;218;51.902;9.542;2022-07-04T08:25:45;27.60;1.00
463;DHT22;218;51.902;9.542;2022-07-04T08:28:12;27.90;1.00
463;DHT22;218;51.902;9.542;2022-07-04T08:30:41;28.00;1.00
463;DHT22;218;51.902;9.542;2022-07-04T08:33:08;28.00;1.00
463;DHT22;218;51.902;9.542;2022-07-04T08:35:35;28.10;1.00
463;DHT22;218;51.902;9.542;2022-07-04T08:38:02;28.20;1.00
463;DHT22;218;51.902;9.542;2022-07-04T08:40:30;28.40;1.00
463;DHT22;218;51.902;9.542;2022-07-04T08:43:01;28.60;1.00
463;DHT22;218;51.902;9.542;2022-07-04T08:45:30;28.90;1.00
463;DHT22;218;51.902;9.542;2022-07-04T08:48:00;29.20;1.00
463;DHT22;218;51.902;9.542;2022-07-04T08:50:30;29.40;1.00
463;DHT22;218;51.902;9.542;2022-07-04T08:53:00;29.70;1.00
463;DHT22;218;51.902;9.542;2022-07-04T08:55:29;30.00;1.00
463;DHT22;218;51.902;9.542;2022-07-04T08:58:14;30.40;1.00
463;DHT22;218;51.902;9.542;2022-07-04T09:00:55;30.70;1.00
463;DHT22;218;51.902;9.542;2022-07-04T09:03:24;30.80;1.00
463;DHT22;218;51.902;9.542;2022-07-04T09:05:52;31.00;1.00
463;DHT22;218;51.902;9.542;2022-07-04T09:08:20;31.10;1.00
463;DHT22;218;51.902;9.542;2022-07-04T09:10:47;31.30;1.00
463;DHT22;218;51.902;9.542;2022-07-04T09:13:15;31.50;1.00
463;DHT22;218;51.902;9.542;2022-07-04T09:15:45;31.70;1.00
463;DHT22;218;51.902;9.542;2022-07-04T09:18:24;31.70;1.00
463;DHT22;218;51.902;9.542;2022-07-04T09:20:52;31.70;1.00
463;DHT22;218;51.902;9.542;2022-07-04T09:23:21;31.60;1.00
463;DHT22;218;51.902;9.542;2022-07-04T09:25:48;31.50;1.00
463;DHT22;218;51.902;9.542;2022-07-04T09:28:28;31.50;1.00
463;DHT22;218;51.902;9.542;2022-07-04T09:30:55;31.70;1.00
463;DHT22;218;51.902;9.542;2022-07-04T09:33:44;31.80;1.00
463;DHT22;218;51.902;9.542;2022-07-04T09:36:13;32.10;1.00
463;DHT22;218;51.902;9.542;2022-07-04T09:39:11;32.30;1.00
463;DHT22;218;51.902;9.542;2022-07-04T09:41:54;32.60;1.00
463;DHT22;218;51.902;9.542;2022-07-04T09:44:22;32.90;1.00
463;DHT22;218;51.902;9.542;2022-07-04T09:46:50;33.10;1.00
463;DHT22;218;51.902;9.542;2022-07-04T09:49:19;33.30;1.00
463;DHT22;218;51.902;9.542;2022-07-04T09:51:47;33.30;1.00
463;DHT22;218;51.902;9.542;2022-07-04T09:54:20;33.30;1.00
463;DHT22;218;51.902;9.542;2022-07-04T09:56:49;33.30;1.00
463;DHT22;218;51.902;9.542;2022-07-04T09:59:17;33.40;1.00
463;DHT22;218;51.902;9.542;2022-07-04T10:01:44;33.50;1.00
463;DHT22;218;51.902;9.542;2022-07-04T10:04:11;33.70;1.00
463;DHT22;218;51.902;9.542;2022-07-04T10:06:42;33.80;1.00
463;DHT22;218;51.902;9.542;2022-07-04T10:09:11;34.00;1.00
463;DHT22;218;51.902;9.542;2022-07-04T10:11:40;34.20;1.00
463;DHT22;218;51.902;9.542;2022-07-04T10:14:09;34.50;1.00
463;DHT22;218;51.902;9.542;2022-07-04T10:16:37;34.60;1.00
463;DHT22;218;51.902;9.542;2022-07-04T10:19:06;34.80;1.00
463;DHT22;218;51.902;9.542;2022-07-04T10:21:34;34.90;1.00
463;DHT22;218;51.902;9.542;2022-07-04T10:24:03;34.80;1.00
463;DHT22;218;51.902;9.542;2022-07-04T10:26:30;34.60;1.00
463;DHT22;218;51.902;9.542;2022-07-04T10:28:58;34.50;1.00
463;DHT22;218;51.902;9.542;2022-07-04T10:31:29;34.30;1.00
463;DHT22;218;51.902;9.542;2022-07-04T10:33:58;34.20;1.00
463;DHT22;218;51.902;9.542;2022-07-04T10:36:26;34.30;1.00
463;DHT22;218;51.902;9.542;2022-07-04T10:38:57;34.30;1.00
463;DHT22;218;51.902;9.542;2022-07-04T10:41:27;34.10;1.00
463;DHT22;218;51.902;9.542;2022-07-04T10:43:59;33.90;1.00
463;DHT22;218;51.902;9.542;2022-07-04T10:46:47;33.80;1.00
463;DHT22;218;51.902;9.542;2022-07-04T10:49:26;33.80;1.00
463;DHT22;218;51.902;9.542;2022-07-04T10:51:55;33.90;1.00
463;DHT22;218;51.902;9.542;2022-07-04T10:54:29;34.00;1.00
463;DHT22;218;51.902;9.542;2022-07-04T10:57:10;34.10;1.00
463;DHT22;218;51.902;9.542;2022-07-04T10:59:37;34.30;1.00
463;DHT22;218;51.902;9.542;2022-07-04T11:02:24;34.50;1.00
463;DHT22;218;51.902;9.542;2022-07-04T11:04:57;34.70;1.00
463;DHT22;218;51.902;9.542;2022-07-04T11:07:57;35.00;1.00
463;DHT22;218;51.902;9.542;2022-07-04T11:10:25;35.30;1.00
463;DHT22;218;51.902;9.542;2022-07-04T11:16:06;35.60;1.00
463;DHT22;218;51.902;9.542;2022-07-04T11:18:44;35.70;1.00
463;DHT22;218;51.902;9.542;2022-07-04T11:21:20;35.70;1.00
463;DHT22;218;51.902;9.542;2022-07-04T11:23:52;35.80;1.00
463;DHT22;218;51.902;9.542;2022-07-04T11:26:21;35.80;1.00
463;DHT22;218;51.902;9.542;2022-07-04T11:28:48;35.70;1.00
463;DHT22;218;51.902;9.542;2022-07-04T11:31:16;35.70;1.00
463;DHT22;218;51.902;9.542;2022-07-04T11:33:44;35.70;1.00
463;DHT22;218;51.902;9.542;2022-07-04T11:36:13;35.90;1.00
463;DHT22;218;51.902;9.542;2022-07-04T11:38:53;36.10;1.00
463;DHT22;218;51.902;9.542;2022-07-04T11:41:23;36.20;1.00
463;DHT22;218;51.902;9.542;2022-07-04T11:44:10;36.30;1.00
463;DHT22;218;51.902;9.542;2022-07-04T11:47:07;36.40;1.00
463;DHT22;218;51.902;9.542;2022-07-04T11:49:35;36.20;1.00
463;DHT22;218;51.902;9.542;2022-07-04T11:52:03;36.00;1.00
463;DHT22;218;51.902;9.542;2022-07-04T11:54:30;35.90;1.00
463;DHT22;218;51.902;9.542;2022-07-04T11:57:15;35.70;1.00
463;DHT22;218;51.902;9.542;2022-07-04T11:59:42;35.60;1.00
463;DHT22;218;51.902;9.542;2022-07-04T12:02:12;35.60;1.00
463;DHT22;218;51.902;9.542;2022-07-04T12:04:40;35.70;1.00
463;DHT22;218;51.902;9.542;2022-07-04T12:07:12;35.90;1.00
463;DHT22;218;51.902;9.542;2022-07-04T12:09:40;36.00;1.00
463;DHT22;218;51.902;9.542;2022-07-04T12:12:08;36.00;1.00
463;DHT22;218;51.902;9.542;2022-07-04T12:14:36;36.00;1.00
463;DHT22;218;51.902;9.542;2022-07-04T12:17:16;36.10;1.00
463;DHT22;218;51.902;9.542;2022-07-04T12:19:55;36.30;1.00
463;DHT22;218;51.902;9.542;2022-07-04T12:22:33;36.60;1.00
463;DHT22;218;51.902;9.542;2022-07-04T12:25:02;36.80;1.00
463;DHT22;218;51.902;9.542;2022-07-04T12:27:41;36.80;1.00
463;DHT22;218;51.902;9.542;2022-07-04T12:30:09;36.70;1.00
463;DHT22;218;51.902;9.542;2022-07-04T12:32:49;36.50;1.00
463;DHT22;218;51.902;9.542;2022-07-04T12:35:50;36.50;1.00
463;DHT22;218;51.902;9.542;2022-07-04T12:38:18;36.70;1.00
463;DHT22;218;51.902;9.542;2022-07-04T12:40:51;36.90;1.00
463;DHT22;218;51.902;9.542;2022-07-04T12:43:19;37.00;1.00
463;DHT22;218;51.902;9.542;2022-07-04T12:45:47;37.00;1.00
463;DHT22;218;51.902;9.542;2022-07-04T12:48:19;37.00;1.00
463;DHT22;218;51.902;9.542;2022-07-04T12:50:47;37.00;1.00
463;DHT22;218;51.902;9.542;2022-07-04T12:53:15;37.00;1.00
463;DHT22;218;51.902;9.542;2022-07-04T12:55:46;36.80;1.00
463;DHT22;218;51.902;9.542;2022-07-04T12:58:13;36.40;1.00
463;DHT22;218;51.902;9.542;2022-07-04T13:00:41;36.00;1.00
463;DHT22;218;51.902;9.542;2022-07-04T13:03:08;35.60;1.00
463;DHT22;218;51.902;9.542;2022-07-04T13:05:37;35.20;1.00
463;DHT22;218;51.902;9.542;2022-07-04T13:08:05;34.90;1.00
463;DHT22;218;51.902;9.542;2022-07-04T13:10:33;34.90;1.00
463;DHT22;218;51.902;9.542;2022-07-04T13:13:06;34.90;1.00
463;DHT22;218;51.902;9.542;2022-07-04T13:15:33;34.80;1.00
463;DHT22;218;51.902;9.542;2022-07-04T13:18:01;34.70;1.00
463;DHT22;218;51.902;9.542;2022-07-04T13:20:28;34.50;1.00
463;DHT22;218;51.902;9.542;2022-07-04T13:22:57;34.40;1.00
463;DHT22;218;51.902;9.542;2022-07-04T13:25:24;34.50;1.00
463;DHT22;218;51.902;9.542;2022-07-04T13:27:51;34.70;1.00
463;DHT22;218;51.902;9.542;2022-07-04T13:30:18;35.10;1.00
463;DHT22;218;51.902;9.542;2022-07-04T13:32:45;35.40;1.00
463;DHT22;218;51.902;9.542;2022-07-04T13:35:12;35.70;1.00
463;DHT22;218;51.902;9.542;2022-07-04T13:37:39;35.80;1.00
463;DHT22;218;51.902;9.542;2022-07-04T13:40:08;35.80;1.00
463;DHT22;218;51.902;9.542;2022-07-04T13:42:36;35.90;1.00
463;DHT22;218;51.902;9.542;2022-07-04T13:45:21;35.90;1.00
463;DHT22;218;51.902;9.542;2022-07-04T13:47:48;35.70;1.00
463;DHT22;218;51.902;9.542;2022-07-04T13:50:15;35.70;1.00
463;DHT22;218;51.902;9.542;2022-07-04T13:52:42;35.70;1.00
463;DHT22;218;51.902;9.542;2022-07-04T13:55:11;35.80;1.00
463;DHT22;218;51.902;9.542;2022-07-04T13:57:38;36.10;1.00
463;DHT22;218;51.902;9.542;2022-07-04T14:00:07;36.40;1.00
463;DHT22;218;51.902;9.542;2022-07-04T14:02:35;36.70;1.00
463;DHT22;218;51.902;9.542;2022-07-04T14:05:02;37.10;1.00
463;DHT22;218;51.902;9.542;2022-07-04T14:07:30;37.30;1.00
463;DHT22;218;51.902;9.542;2022-07-04T14:09:58;37.30;1.00
463;DHT22;218;51.902;9.542;2022-07-04T14:12:26;37.00;1.00
463;DHT22;218;51.902;9.542;2022-07-04T14:14:53;36.50;1.00
463;DHT22;218;51.902;9.542;2022-07-04T14:17:20;36.20;1.00
463;DHT22;218;51.902;9.542;2022-07-04T14:19:48;36.10;1.00
463;DHT22;218;51.902;9.542;2022-07-04T14:22:15;36.00;1.00
463;DHT22;218;51.902;9.542;2022-07-04T14:24:42;36.00;1.00
463;DHT22;218;51.902;9.542;2022-07-04T14:27:09;36.00;1.00
463;DHT22;218;51.902;9.542;2022-07-04T14:29:38;36.00;1.00
463;DHT22;218;51.902;9.542;2022-07-04T14:32:07;36.10;1.00
463;DHT22;218;51.902;9.542;2022-07-04T14:34:34;36.30;1.00
463;DHT22;218;51.902;9.542;2022-07-04T14:37:01;36.50;1.00
463;DHT22;218;51.902;9.542;2022-07-04T14:39:29;36.90;1.00
463;DHT22;218;51.902;9.542;2022-07-04T14:41:55;37.20;1.00
463;DHT22;218;51.902;9.542;2022-07-04T14:44:22;37.50;1.00
463;DHT22;218;51.902;9.542;2022-07-04T14:46:51;37.70;1.00
463;DHT22;218;51.902;9.542;2022-07-04T14:49:18;37.90;1.00
463;DHT22;218;51.902;9.542;2022-07-04T14:51:45;38.10;1.00
463;DHT22;218;51.902;9.542;2022-07-04T14:54:13;38.20;1.00
463;DHT22;218;51.902;9.542;2022-07-04T14:56:40;38.30;1.00
463;DHT22;218;51.902;9.542;2022-07-04T14:59:07;38.20;1.00
463;DHT22;218;51.902;9.542;2022-07-04T15:01:34;37.90;1.00
463;DHT22;218;51.902;9.542;2022-07-04T15:04:02;37.50;1.00
463;DHT22;218;51.902;9.542;2022-07-04T15:06:29;37.40;1.00
463;DHT22;218;51.902;9.542;2022-07-04T15:08:56;37.40;1.00
463;DHT22;218;51.902;9.542;2022-07-04T15:11:24;37.30;1.00
463;DHT22;218;51.902;9.542;2022-07-04T15:13:52;37.40;1.00
463;DHT22;218;51.902;9.542;2022-07-04T15:16:19;37.40;1.00
463;DHT22;218;51.902;9.542;2022-07-04T15:18:46;37.40;1.00
463;DHT22;218;51.902;9.542;2022-07-04T15:21:14;37.30;1.00
463;DHT22;218;51.902;9.542;2022-07-04T15:23:58;37.10;1.00
463;DHT22;218;51.902;9.542;2022-07-04T15:26:37;36.80;1.00
463;DHT22;218;51.902;9.542;2022-07-04T15:29:05;36.50;1.00
463;DHT22;218;51.902;9.542;2022-07-04T15:31:32;36.40;1.00
463;DHT22;218;51.902;9.542;2022-07-04T15:33:59;36.30;1.00
463;DHT22;218;51.902;9.542;2022-07-04T15:36:28;36.20;1.00
463;DHT22;218;51.902;9.542;2022-07-04T15:38:55;36.00;1.00
463;DHT22;218;51.902;9.542;2022-07-04T15:41:22;35.70;1.00
463;DHT22;218;51.902;9.542;2022-07-04T15:43:49;35.50;1.00
463;DHT22;218;51.902;9.542;2022-07-04T15:46:17;35.40;1.00
463;DHT22;218;51.902;9.542;2022-07-04T15:48:45;35.20;1.00
463;DHT22;218;51.902;9.542;2022-07-04T15:51:12;35.10;1.00
463;DHT22;218;51.902;9.542;2022-07-04T15:53:40;35.10;1.00
463;DHT22;218;51.902;9.542;2022-07-04T15:56:07;34.90;1.00
463;DHT22;218;51.902;9.542;2022-07-04T15:58:34;34.70;1.00
463;DHT22;218;51.902;9.542;2022-07-04T16:01:01;34.30;1.00
463;DHT22;218;51.902;9.542;2022-07-04T16:03:28;34.00;1.00
463;DHT22;218;51.902;9.542;2022-07-04T16:05:57;33.60;1.00
463;DHT22;218;51.902;9.542;2022-07-04T16:08:24;33.40;1.00
463;DHT22;218;51.902;9.542;2022-07-04T16:10:53;33.20;1.00
463;DHT22;218;51.902;9.542;2022-07-04T16:13:20;33.10;1.00
463;DHT22;218;51.902;9.542;2022-07-04T16:15:47;33.10;1.00
463;DHT22;218;51.902;9.542;2022-07-04T16:18:14;33.10;1.00
463;DHT22;218;51.902;9.542;2022-07-04T16:20:41;33.10;1.00
463;DHT22;218;51.902;9.542;2022-07-04T16:23:08;33.00;1.00
463;DHT22;218;51.902;9.542;2022-07-04T16:25:38;33.00;1.00
463;DHT22;218;51.902;9.542;2022-07-04T16:28:06;32.90;1.00
463;DHT22;218;51.902;9.542;2022-07-04T16:30:33;32.80;1.00
463;DHT22;218;51.902;9.542;2022-07-04T16:33:00;32.70;1.00
463;DHT22;218;51.902;9.542;2022-07-04T16:35:27;32.50;1.00
463;DHT22;218;51.902;9.542;2022-07-04T16:37:57;32.40;1.00
463;DHT22;218;51.902;9.542;2022-07-04T16:40:24;32.10;1.00
463;DHT22;218;51.902;9.542;2022-07-04T16:42:52;32.00;1.00
463;DHT22;218;51.902;9.542;2022-07-04T16:45:23;31.80;1.00
463;DHT22;218;51.902;9.542;2022-07-04T16:47:50;31.70;1.00
463;DHT22;218;51.902;9.542;2022-07-04T16:50:17;31.60;1.00
463;DHT22;218;51.902;9.542;2022-07-04T16:52:44;31.40;1.00
463;DHT22;218;51.902;9.542;2022-07-04T16:55:11;31.40;1.00
463;DHT22;218;51.902;9.542;2022-07-04T16:57:38;31.30;1.00
463;DHT22;218;51.902;9.542;2022-07-04T17:00:06;31.20;1.00
463;DHT22;218;51.902;9.542;2022-07-04T17:02:35;31.10;1.00
463;DHT22;218;51.902;9.542;2022-07-04T17:05:02;31.10;1.00
463;DHT22;218;51.902;9.542;2022-07-04T17:07:29;31.00;1.00
463;DHT22;218;51.902;9.542;2022-07-04T17:09:56;30.90;1.00
463;DHT22;218;51.902;9.542;2022-07-04T17:12:23;30.80;1.00
463;DHT22;218;51.902;9.542;2022-07-04T17:14:50;30.80;1.00
463;DHT22;218;51.902;9.542;2022-07-04T17:17:17;30.70;1.00
463;DHT22;218;51.902;9.542;2022-07-04T17:19:47;30.60;1.00
463;DHT22;218;51.902;9.542;2022-07-04T17:22:14;30.50;1.00
463;DHT22;218;51.902;9.542;2022-07-04T17:24:41;30.50;1.00
463;DHT22;218;51.902;9.542;2022-07-04T17:27:08;30.40;1.00
463;DHT22;218;51.902;9.542;2022-07-04T17:29:35;30.40;1.00
463;DHT22;218;51.902;9.542;2022-07-04T17:32:03;30.30;1.00
463;DHT22;218;51.902;9.542;2022-07-04T17:34:30;30.20;1.00
463;DHT22;218;51.902;9.542;2022-07-04T17:36:58;30.10;1.00
463;DHT22;218;51.902;9.542;2022-07-04T17:39:25;30.00;1.00
463;DHT22;218;51.902;9.542;2022-07-04T17:41:52;29.90;1.00
463;DHT22;218;51.902;9.542;2022-07-04T17:44:20;29.80;1.00
463;DHT22;218;51.902;9.542;2022-07-04T17:46:51;29.70;1.00
463;DHT22;218;51.902;9.542;2022-07-04T17:49:18;29.60;1.00
463;DHT22;218;51.902;9.542;2022-07-04T17:51:45;29.60;1.00
463;DHT22;218;51.902;9.542;2022-07-04T17:54:14;29.50;1.00
463;DHT22;218;51.902;9.542;2022-07-04T17:56:41;29.40;1.00
463;DHT22;218;51.902;9.542;2022-07-04T17:59:08;29.40;1.00
463;DHT22;218;51.902;9.542;2022-07-04T18:02:13;29.30;1.00
463;DHT22;218;51.902;9.542;2022-07-04T18:04:40;29.30;1.00
463;DHT22;218;51.902;9.542;2022-07-04T18:07:07;29.10;1.00
463;DHT22;218;51.902;9.542;2022-07-04T18:09:36;28.80;1.00
463;DHT22;218;51.902;9.542;2022-07-04T18:12:03;28.40;1.00
463;DHT22;218;51.902;9.542;2022-07-04T18:14:30;28.00;1.00
463;DHT22;218;51.902;9.542;2022-07-04T18:16:57;27.70;1.00
463;DHT22;218;51.902;9.542;2022-07-04T18:19:24;27.30;1.00
463;DHT22;218;51.902;9.542;2022-07-04T18:21:51;27.00;1.00
463;DHT22;218;51.902;9.542;2022-07-04T18:24:21;26.70;1.00
463;DHT22;218;51.902;9.542;2022-07-04T18:26:50;26.40;1.00
463;DHT22;218;51.902;9.542;2022-07-04T18:29:17;26.20;1.00
463;DHT22;218;51.902;9.542;2022-07-04T18:31:49;25.90;1.00
463;DHT22;218;51.902;9.542;2022-07-04T18:34:16;25.80;1.00
463;DHT22;218;51.902;9.542;2022-07-04T18:36:43;25.60;1.00
463;DHT22;218;51.902;9.542;2022-07-04T18:39:10;25.50;1.00
463;DHT22;218;51.902;9.542;2022-07-04T18:41:37;25.40;1.00
463;DHT22;218;51.902;9.542;2022-07-04T18:44:23;25.30;1.00
463;DHT22;218;51.902;9.542;2022-07-04T18:46:50;25.10;1.00
463;DHT22;218;51.902;9.542;2022-07-04T18:49:17;25.00;1.00
463;DHT22;218;51.902;9.542;2022-07-04T18:51:44;24.80;1.00
463;DHT22;218;51.902;9.542;2022-07-04T18:54:14;24.60;1.00
463;DHT22;218;51.902;9.542;2022-07-04T18:56:41;24.40;1.00
463;DHT22;218;51.902;9.542;2022-07-04T18:59:08;24.20;1.00
463;DHT22;218;51.902;9.542;2022-07-04T19:01:41;24.00;1.00
463;DHT22;218;51.902;9.542;2022-07-04T19:04:21;23.80;1.00
463;DHT22;218;51.902;9.542;2022-07-04T19:06:48;23.60;1.00
463;DHT22;218;51.902;9.542;2022-07-04T19:09:15;23.40;1.00
463;DHT22;218;51.902;9.542;2022-07-04T19:11:42;23.30;1.00
463;DHT22;218;51.902;9.542;2022-07-04T19:14:09;23.10;1.00
463;DHT22;218;51.902;9.542;2022-07-04T19:16:38;23.00;1.00
463;DHT22;218;51.902;9.542;2022-07-04T19:19:05;22.80;1.00
463;DHT22;218;51.902;9.542;2022-07-04T19:21:32;22.60;1.00
463;DHT22;218;51.902;9.542;2022-07-04T19:24:00;22.50;1.00
463;DHT22;218;51.902;9.542;2022-07-04T19:26:27;22.30;1.00
463;DHT22;218;51.902;9.542;2022-07-04T19:28:55;22.20;1.00
463;DHT22;218;51.902;9.542;2022-07-04T19:31:24;22.10;1.00
463;DHT22;218;51.902;9.542;2022-07-04T19:33:53;22.00;1.00
463;DHT22;218;51.902;9.542;2022-07-04T19:36:20;22.00;1.00
463;DHT22;218;51.902;9.542;2022-07-04T19:38:47;21.90;1.00
463;DHT22;218;51.902;9.542;2022-07-04T19:41:14;21.90;1.00
463;DHT22;218;51.902;9.542;2022-07-04T19:43:41;21.80;1.00
463;DHT22;218;51.902;9.542;2022-07-04T19:46:11;21.70;1.00
463;DHT22;218;51.902;9.542;2022-07-04T19:48:38;21.50;1.00
463;DHT22;218;51.902;9.542;2022-07-04T19:51:06;21.40;1.00
463;DHT22;218;51.902;9.542;2022-07-04T19:53:35;21.30;1.00
463;DHT22;218;51.902;9.542;2022-07-04T19:56:03;21.10;1.00
463;DHT22;218;51.902;9.542;2022-07-04T19:58:30;21.00;1.00
463;DHT22;218;51.902;9.542;2022-07-04T20:00:58;20.90;1.00
463;DHT22;218;51.902;9.542;2022-07-04T20:03:25;20.70;1.00
463;DHT22;218;51.902;9.542;2022-07-04T20:05:52;20.60;1.00
463;DHT22;218;51.902;9.542;2022-07-04T20:08:21;20.50;1.00
463;DHT22;218;51.902;9.542;2022-07-04T20:10:48;20.30;1.00
463;DHT22;218;51.902;9.542;2022-07-04T20:13:15;20.20;1.00
463;DHT22;218;51.902;9.542;2022-07-04T20:15:42;20.10;1.00
463;DHT22;218;51.902;9.542;2022-07-04T20:18:09;20.10;1.00
463;DHT22;218;51.902;9.542;2022-07-04T20:20:36;20.00;1.00
463;DHT22;218;51.902;9.542;2022-07-04T20:23:03;19.90;1.00
463;DHT22;218;51.902;9.542;2022-07-04T20:25:32;19.80;1.00
463;DHT22;218;51.902;9.542;2022-07-04T20:27:59;19.70;1.00
463;DHT22;218;51.902;9.542;2022-07-04T20:30:27;19.60;1.00
463;DHT22;218;51.902;9.542;2022-07-04T20:32:54;19.50;1.00
463;DHT22;218;51.902;9.542;2022-07-04T20:35:21;19.40;1.00
463;DHT22;218;51.902;9.542;2022-07-04T20:37:48;19.30;1.00
463;DHT22;218;51.902;9.542;2022-07-04T20:40:15;19.10;1.00
463;DHT22;218;51.902;9.542;2022-07-04T20:45:45;18.90;1.00
463;DHT22;218;51.902;9.542;2022-07-04T20:48:12;18.80;1.00
463;DHT22;218;51.902;9.542;2022-07-04T20:50:40;18.60;1.00
463;DHT22;218;51.902;9.542;2022-07-04T20:53:07;18.60;1.00